createdAt,value
2022-09-15T00:02:24.349Z,100.00
2022-09-15T00:04:50.765Z,100.00
2022-09-15T00:07:17.343Z,100.00
2022-09-15T00:09:43.632Z,100.00
2022-09-15T00:12:10.007Z,100.00
2022-09-15T00:14:36.335Z,100.00
2022-09-15T00:17:02.723Z,100.00
2022-09-15T00:19:29.257Z,100.00
2022-09-15T00:21:55.560Z,100.00
2022-09-15T00:24:21.874Z,100.00
2022-09-15T00:26:48.186Z,100.00
2022-09-15T00:29:14.474Z,100.00
2022-09-15T00:31:40.806Z,100.00
2022-09-15T00:34:07.319Z,100.00
2022-09-15T00:36:33.932Z,100.00
2022-09-15T00:39:00.246Z,100.00
2022-09-15T00:41:26.641Z,100.00
2022-09-15T00:44:01.789Z,100.00
2022-09-15T00:46:31.715Z,100.00
2022-09-15T00:49:09.260Z,100.00
2022-09-15T00:51:42.896Z,100.00
2022-09-15T00:54:16.013Z,100.00
2022-09-15T00:56:44.228Z,100.00
2022-09-15T00:59:16.861Z,100.00
2022-09-15T01:01:46.019Z,100.00
2022-09-15T01:04:14.631Z,100.00
2022-09-15T01:06:46.730Z,100.00
2022-09-15T01:09:24.894Z,100.00
2022-09-15T01:11:51.563Z,100.00
2022-09-15T01:14:17.865Z,100.00
2022-09-15T01:17:03.772Z,100.00
2022-09-15T01:20:02.905Z,100.00
2022-09-15T01:23:03.150Z,100.00
2022-09-15T01:26:17.709Z,100.00
2022-09-15T01:29:21.884Z,100.00
2022-09-15T01:32:16.479Z,100.00
2022-09-15T01:34:55.815Z,100.00
2022-09-15T01:37:30.130Z,100.00
2022-09-15T01:40:00.581Z,100.00
2022-09-15T01:42:27.871Z,100.00
2022-09-15T01:45:07.497Z,100.00
2022-09-15T01:47:35.247Z,100.00
2022-09-15T01:50:08.911Z,100.00
2022-09-15T01:52:36.742Z,100.00
2022-09-15T01:55:11.545Z,100.00
2022-09-15T01:57:37.893Z,100.00
2022-09-15T02:00:05.841Z,100.00
2022-09-15T02:02:38.067Z,100.00
2022-09-15T02:05:20.659Z,100.00
2022-09-15T02:08:09.672Z,100.00
2022-09-15T02:10:49.591Z,100.00
2022-09-15T02:13:22.491Z,100.00
2022-09-15T02:15:56.738Z,100.00
2022-09-15T02:18:45.838Z,100.00
2022-09-15T02:21:18.808Z,100.00
2022-09-15T02:23:57.016Z,100.00
2022-09-15T02:26:29.018Z,100.00
2022-09-15T02:28:59.883Z,100.00
2022-09-15T02:31:27.729Z,100.00
2022-09-15T02:33:59.065Z,100.00
2022-09-15T02:36:32.999Z,100.00
2022-09-15T02:39:04.852Z,100.00
2022-09-15T02:41:33.781Z,100.00
2022-09-15T02:44:00.087Z,100.00
2022-09-15T02:46:26.503Z,100.00
2022-09-15T02:48:53.493Z,100.00
2022-09-15T02:51:20.200Z,100.00
2022-09-15T02:53:46.545Z,100.00
2022-09-15T02:56:13.511Z,100.00
2022-09-15T02:58:39.803Z,100.00
2022-09-15T03:01:07.707Z,100.00
2022-09-15T03:03:34.828Z,100.00
2022-09-15T03:06:18.597Z,100.00
2022-09-15T03:08:49.589Z,100.00
2022-09-15T03:11:17.723Z,100.00
2022-09-15T03:13:44.067Z,100.00
2022-09-15T03:16:12.136Z,100.00
2022-09-15T03:18:39.427Z,100.00
2022-09-15T03:21:09.342Z,100.00
2022-09-15T03:23:36.392Z,100.00
2022-09-15T03:26:02.885Z,100.00
2022-09-15T03:28:29.667Z,100.00
2022-09-15T03:30:56.043Z,100.00
2022-09-15T03:33:23.324Z,100.00
2022-09-15T03:35:51.136Z,100.00
2022-09-15T03:38:17.771Z,100.00
2022-09-15T03:40:44.452Z,100.00
2022-09-15T03:43:15.455Z,100.00
2022-09-15T03:45:44.931Z,100.00
2022-09-15T03:48:11.303Z,100.00
2022-09-15T03:50:37.624Z,100.00
2022-09-15T03:53:03.957Z,100.00
2022-09-15T03:55:30.286Z,100.00
2022-09-15T03:57:56.593Z,100.00
2022-09-15T04:00:22.891Z,100.00
2022-09-15T04:02:49.249Z,100.00
2022-09-15T04:05:15.799Z,100.00
2022-09-15T04:07:42.193Z,100.00
2022-09-15T04:10:09.480Z,100.00
2022-09-15T04:12:36.300Z,100.00
2022-09-15T04:15:03.970Z,100.00
2022-09-15T04:17:31.081Z,100.00
2022-09-15T04:19:57.741Z,100.00
2022-09-15T04:22:26.378Z,100.00
2022-09-15T04:24:52.911Z,100.00
2022-09-15T04:27:19.284Z,100.00
2022-09-15T04:29:46.039Z,100.00
2022-09-15T04:32:12.377Z,100.00
2022-09-15T04:34:41.418Z,100.00
2022-09-15T04:37:07.937Z,100.00
2022-09-15T04:39:34.314Z,100.00
2022-09-15T04:42:01.017Z,100.00
2022-09-15T04:44:27.303Z,100.00
2022-09-15T04:46:54.280Z,100.00
2022-09-15T04:49:20.666Z,100.00
2022-09-15T04:51:47.098Z,100.00
2022-09-15T04:54:13.559Z,100.00
2022-09-15T04:56:39.877Z,100.00
2022-09-15T04:59:06.265Z,100.00
2022-09-15T05:01:35.145Z,100.00
2022-09-15T05:04:05.817Z,100.00
2022-09-15T05:06:32.792Z,100.00
2022-09-15T05:08:59.384Z,100.00
2022-09-15T05:11:26.983Z,100.00
2022-09-15T05:13:53.887Z,100.00
2022-09-15T05:16:23.648Z,100.00
2022-09-15T05:18:51.523Z,100.00
2022-09-15T05:21:20.162Z,100.00
2022-09-15T05:23:47.300Z,100.00
2022-09-15T05:26:16.500Z,100.00
2022-09-15T05:28:43.165Z,100.00
2022-09-15T05:31:11.911Z,100.00
2022-09-15T05:33:38.652Z,100.00
2022-09-15T05:36:05.989Z,100.00
2022-09-15T05:38:32.526Z,100.00
2022-09-15T05:41:03.927Z,100.00
2022-09-15T05:43:32.548Z,100.00
2022-09-15T05:45:58.923Z,100.00
2022-09-15T05:48:26.655Z,100.00
2022-09-15T05:50:54.702Z,100.00
2022-09-15T05:53:22.787Z,100.00
2022-09-15T05:55:53.947Z,100.00
2022-09-15T05:58:20.220Z,100.00
2022-09-15T06:00:46.552Z,100.00
2022-09-15T06:03:15.377Z,100.00
2022-09-15T06:05:42.268Z,100.00
2022-09-15T06:08:09.473Z,100.00
2022-09-15T06:10:36.323Z,100.00
2022-09-15T06:13:02.779Z,100.00
2022-09-15T06:15:29.077Z,100.00
2022-09-15T06:17:55.365Z,100.00
2022-09-15T06:20:22.281Z,100.00
2022-09-15T06:22:48.872Z,100.00
2022-09-15T06:25:15.384Z,100.00
2022-09-15T06:27:41.986Z,100.00
2022-09-15T06:30:09.898Z,100.00
2022-09-15T06:32:36.739Z,100.00
2022-09-15T06:35:07.074Z,100.00
2022-09-15T06:37:34.521Z,100.00
2022-09-15T06:40:01.795Z,100.00
2022-09-15T06:42:28.285Z,100.00
2022-09-15T06:44:54.580Z,100.00
2022-09-15T06:47:21.104Z,100.00
2022-09-15T06:49:47.390Z,100.00
2022-09-15T06:52:13.740Z,100.00
2022-09-15T06:54:40.120Z,100.00
2022-09-15T06:57:06.397Z,100.00
2022-09-15T06:59:32.673Z,100.00
2022-09-15T07:02:04.091Z,100.00
2022-09-15T07:04:37.137Z,100.00
2022-09-15T07:07:03.521Z,100.00
2022-09-15T07:09:29.857Z,100.00
2022-09-15T07:11:56.195Z,100.00
2022-09-15T07:14:22.503Z,100.00
2022-09-15T07:16:48.921Z,100.00
2022-09-15T07:19:15.413Z,100.00
2022-09-15T07:21:41.723Z,100.00
2022-09-15T07:24:10.276Z,100.00
2022-09-15T07:26:37.763Z,100.00
2022-09-15T07:29:06.646Z,100.00
2022-09-15T07:31:35.634Z,100.00
2022-09-15T07:34:02.339Z,100.00
2022-09-15T07:36:29.860Z,100.00
2022-09-15T07:38:56.750Z,100.00
2022-09-15T07:41:25.539Z,100.00
2022-09-15T07:43:54.261Z,100.00
2022-09-15T07:46:22.215Z,100.00
2022-09-15T07:48:53.323Z,100.00
2022-09-15T07:51:20.056Z,100.00
2022-09-15T07:53:47.967Z,100.00
2022-09-15T07:56:16.033Z,100.00
2022-09-15T07:58:42.313Z,100.00
2022-09-15T08:01:14.674Z,100.00
2022-09-15T08:03:42.670Z,100.00
2022-09-15T08:06:09.903Z,100.00
2022-09-15T08:08:38.684Z,100.00
2022-09-15T08:11:07.268Z,100.00
2022-09-15T08:13:33.692Z,100.00
2022-09-15T08:16:12.347Z,100.00
2022-09-15T08:18:42.232Z,100.00
2022-09-15T08:21:13.468Z,100.00
2022-09-15T08:23:40.161Z,100.00
2022-09-15T08:26:13.068Z,100.00
2022-09-15T08:28:40.528Z,100.00
2022-09-15T08:31:13.755Z,100.00
2022-09-15T08:33:44.786Z,100.00
2022-09-15T08:36:12.692Z,100.00
2022-09-15T08:38:46.873Z,100.00
2022-09-15T08:41:29.746Z,100.00
2022-09-15T08:44:00.868Z,100.00
2022-09-15T08:46:54.006Z,100.00
2022-09-15T08:49:50.598Z,100.00
2022-09-15T08:52:38.051Z,98.40
2022-09-15T08:55:12.844Z,98.35
2022-09-15T08:57:39.291Z,97.76
2022-09-15T09:00:25.219Z,99.51
2022-09-15T09:03:14.411Z,97.26
2022-09-15T09:05:53.480Z,100.00
2022-09-15T09:08:34.705Z,97.89
2022-09-15T09:11:16.080Z,98.68
2022-09-15T09:13:52.902Z,99.44
2022-09-15T09:16:32.143Z,97.20
2022-09-15T09:19:33.595Z,96.31
2022-09-15T09:22:05.390Z,96.91
2022-09-15T09:24:42.425Z,97.54
2022-09-15T09:27:18.940Z,97.31
2022-09-15T09:29:51.230Z,94.89
2022-09-15T09:32:38.577Z,92.85
2022-09-15T09:35:34.442Z,91.80
2022-09-15T09:38:02.334Z,93.62
2022-09-15T09:40:31.426Z,90.07
2022-09-15T09:42:57.906Z,92.72
2022-09-15T09:45:24.216Z,90.21
2022-09-15T09:47:50.572Z,86.12
2022-09-15T09:50:35.959Z,87.21
2022-09-15T09:53:17.788Z,87.32
2022-09-15T09:55:45.814Z,87.80
2022-09-15T09:58:17.872Z,89.07
2022-09-15T10:00:44.583Z,93.04
2022-09-15T10:03:28.002Z,90.63
2022-09-15T10:06:18.715Z,87.50
2022-09-15T10:08:53.256Z,87.72
2022-09-15T10:11:19.635Z,86.07
2022-09-15T10:13:54.997Z,86.03
2022-09-15T10:16:22.359Z,84.83
2022-09-15T10:18:54.227Z,83.59
2022-09-15T10:21:24.509Z,83.32
2022-09-15T10:23:50.844Z,81.37
2022-09-15T10:26:31.972Z,80.39
2022-09-15T10:29:16.924Z,81.65
2022-09-15T10:31:44.684Z,79.24
2022-09-15T10:34:31.597Z,78.89
2022-09-15T10:37:16.900Z,80.19
2022-09-15T10:39:54.995Z,77.28
2022-09-15T10:42:44.361Z,75.77
2022-09-15T10:45:18.628Z,78.58
2022-09-15T10:48:02.850Z,77.74
2022-09-15T10:50:36.440Z,76.61
2022-09-15T10:53:27.670Z,75.16
2022-09-15T10:55:56.867Z,71.26
2022-09-15T10:58:32.278Z,73.00
2022-09-15T11:01:27.916Z,71.90
2022-09-15T11:04:22.747Z,72.50
2022-09-15T11:07:03.049Z,70.31
2022-09-15T11:09:32.097Z,68.77
2022-09-15T11:12:17.183Z,69.82
2022-09-15T11:14:55.682Z,68.58
2022-09-15T11:17:37.401Z,70.54
2022-09-15T11:20:15.110Z,72.35
2022-09-15T11:22:49.664Z,71.49
2022-09-15T11:25:23.184Z,71.61
2022-09-15T11:28:00.516Z,69.23
2022-09-15T11:30:35.797Z,72.21
2022-09-15T11:33:27.752Z,69.33
2022-09-15T11:36:07.388Z,69.95
2022-09-15T11:38:53.431Z,70.95
2022-09-15T11:41:30.981Z,73.56
2022-09-15T11:44:16.125Z,68.85
2022-09-15T11:46:57.420Z,69.46
2022-09-15T11:49:31.021Z,71.07
2022-09-15T11:52:14.502Z,70.13
2022-09-15T11:54:56.694Z,69.47
2022-09-15T11:57:34.152Z,70.28
2022-09-15T12:00:12.301Z,70.17
2022-09-15T12:03:16.625Z,67.86
2022-09-15T12:05:50.788Z,72.06
2022-09-15T12:08:20.843Z,68.78
2022-09-15T12:10:52.295Z,69.15
2022-09-15T12:13:21.777Z,68.45
2022-09-15T12:15:49.586Z,66.28
2022-09-15T12:18:38.138Z,66.38
2022-09-15T12:21:23.768Z,65.44
2022-09-15T12:23:56.064Z,62.47
2022-09-15T12:26:25.090Z,62.04
2022-09-15T12:28:51.942Z,61.73
2022-09-15T12:31:39.191Z,59.97
2022-09-15T12:34:25.451Z,59.52
2022-09-15T12:37:07.135Z,59.99
2022-09-15T12:39:41.935Z,58.78
2022-09-15T12:42:24.650Z,59.53
2022-09-15T12:44:53.144Z,61.27
2022-09-15T12:47:21.633Z,59.06
2022-09-15T12:49:51.168Z,63.74
2022-09-15T12:52:20.375Z,59.09
2022-09-15T12:55:00.668Z,62.08
2022-09-15T12:57:37.827Z,62.27
2022-09-15T13:00:42.331Z,61.29
2022-09-15T13:03:50.728Z,61.08
2022-09-15T13:06:30.320Z,63.25
2022-09-15T13:09:02.286Z,63.11
2022-09-15T13:11:36.709Z,63.12
2022-09-15T13:14:13.725Z,64.26
2022-09-15T13:16:40.030Z,63.23
2022-09-15T13:19:41.724Z,62.71
2022-09-15T13:22:10.902Z,63.34
2022-09-15T13:24:48.426Z,61.82
2022-09-15T13:27:19.570Z,65.41
2022-09-15T13:29:50.689Z,62.64
2022-09-15T13:32:40.966Z,62.35
2022-09-15T13:35:22.397Z,62.75
2022-09-15T13:38:13.560Z,64.06
2022-09-15T13:40:52.434Z,62.04
2022-09-15T13:43:43.539Z,63.41
2022-09-15T13:46:38.883Z,63.85
2022-09-15T13:49:29.649Z,63.09
2022-09-15T13:52:07.316Z,63.43
2022-09-15T13:54:33.631Z,63.29
2022-09-15T13:57:01.857Z,60.30
2022-09-15T13:59:30.985Z,60.66
2022-09-15T14:01:58.933Z,62.89
2022-09-15T14:04:31.123Z,59.28
2022-09-15T14:07:01.908Z,61.49
2022-09-15T14:09:57.603Z,57.91
2022-09-15T14:12:24.001Z,58.22
2022-09-15T14:14:53.933Z,59.48
2022-09-15T14:17:28.710Z,57.79
2022-09-15T14:19:57.328Z,59.53
2022-09-15T14:22:29.520Z,63.13
2022-09-15T14:24:57.505Z,59.99
2022-09-15T14:27:27.388Z,62.08
2022-09-15T14:30:00.421Z,62.50
2022-09-15T14:32:28.692Z,61.96
2022-09-15T14:34:59.527Z,62.38
2022-09-15T14:37:32.089Z,62.88
2022-09-15T14:40:00.954Z,60.00
2022-09-15T14:42:35.321Z,59.64
2022-09-15T14:48:02.200Z,55.24
2022-09-15T14:50:32.824Z,62.43
2022-09-15T14:53:05.522Z,60.53
2022-09-15T14:55:43.300Z,58.32
2022-09-15T14:58:30.713Z,56.76
2022-09-15T15:01:23.070Z,61.79
2022-09-15T15:04:09.992Z,59.38
2022-09-15T15:06:54.079Z,66.38
2022-09-15T15:09:29.820Z,61.41
2022-09-15T15:12:00.459Z,60.79
2022-09-15T15:14:27.478Z,59.90
2022-09-15T15:17:00.051Z,58.19
2022-09-15T15:20:12.684Z,57.64
2022-09-15T15:22:41.445Z,61.03
2022-09-15T15:25:28.919Z,58.25
2022-09-15T15:27:59.462Z,57.93
2022-09-15T15:30:36.614Z,56.72
2022-09-15T15:33:27.294Z,59.05
2022-09-15T15:36:08.119Z,59.66
2022-09-15T15:38:50.337Z,60.93
2022-09-15T15:41:22.419Z,60.23
2022-09-15T15:43:59.680Z,63.63
2022-09-15T15:46:53.340Z,63.66
2022-09-15T15:49:21.215Z,65.19
2022-09-15T15:51:47.771Z,60.08
2022-09-15T15:54:14.436Z,60.91
2022-09-15T15:56:40.852Z,62.06
2022-09-15T15:59:09.180Z,62.00
2022-09-15T16:01:35.519Z,61.95
2022-09-15T16:04:01.981Z,60.70
2022-09-15T16:06:28.405Z,62.44
2022-09-15T16:08:58.033Z,65.10
2022-09-15T16:11:24.489Z,67.15
2022-09-15T16:13:50.823Z,63.24
2022-09-15T16:16:22.644Z,63.72
2022-09-15T16:18:49.439Z,64.40
2022-09-15T16:21:22.172Z,63.87
2022-09-15T16:23:48.614Z,65.63
2022-09-15T16:26:20.583Z,66.33
2022-09-15T16:28:46.908Z,66.95
2022-09-15T16:31:14.662Z,67.50
2022-09-15T16:33:42.696Z,66.65
2022-09-15T16:36:13.790Z,67.28
2022-09-15T16:38:40.959Z,66.09
2022-09-15T16:41:16.100Z,67.28
2022-09-15T16:43:43.190Z,68.78
2022-09-15T16:46:14.009Z,68.42
2022-09-15T16:48:42.592Z,67.38
2022-09-15T16:51:31.633Z,70.47
2022-09-15T16:53:58.667Z,68.96
2022-09-15T16:56:25.207Z,69.36
2022-09-15T16:58:59.575Z,69.40
2022-09-15T17:01:26.788Z,72.48
2022-09-15T17:03:53.083Z,70.72
2022-09-15T17:06:19.428Z,71.33
2022-09-15T17:08:46.064Z,73.21
2022-09-15T17:11:16.625Z,77.06
2022-09-15T17:13:44.000Z,71.85
2022-09-15T17:16:12.324Z,70.70
2022-09-15T17:18:38.669Z,72.88
2022-09-15T17:21:05.094Z,74.77
2022-09-15T17:23:35.346Z,71.39
2022-09-15T17:26:04.945Z,71.76
2022-09-15T17:28:33.268Z,74.55
2022-09-15T17:31:05.232Z,73.22
2022-09-15T17:33:32.703Z,76.92
2022-09-15T17:36:00.323Z,79.75
2022-09-15T17:38:27.395Z,77.19
2022-09-15T17:40:55.226Z,77.18
2022-09-15T17:43:24.303Z,81.40
2022-09-15T17:45:51.653Z,79.05
2022-09-15T17:48:18.060Z,85.50
2022-09-15T17:50:45.488Z,86.18
2022-09-15T17:53:14.868Z,83.48
2022-09-15T17:55:41.296Z,85.35
2022-09-15T17:58:08.602Z,85.17
2022-09-15T18:00:37.731Z,88.43
2022-09-15T18:03:28.720Z,86.08
2022-09-15T18:05:58.190Z,87.92
2022-09-15T18:08:25.204Z,89.19
2022-09-15T18:10:51.639Z,90.03
2022-09-15T18:13:22.061Z,90.86
2022-09-15T18:15:48.917Z,87.27
2022-09-15T18:18:19.698Z,88.50
2022-09-15T18:20:46.501Z,85.18
2022-09-15T18:23:15.068Z,81.04
2022-09-15T18:25:42.316Z,79.82
2022-09-15T18:28:09.180Z,82.98
2022-09-15T18:30:40.467Z,81.08
2022-09-15T18:33:22.134Z,82.30
2022-09-15T18:35:51.431Z,81.45
2022-09-15T18:38:17.859Z,81.65
2022-09-15T18:40:55.823Z,77.95
2022-09-15T18:43:24.963Z,76.97
2022-09-15T18:45:53.065Z,79.05
2022-09-15T18:48:19.483Z,80.51
2022-09-15T18:50:45.845Z,80.74
2022-09-15T18:53:12.952Z,82.39
2022-09-15T18:55:42.506Z,78.52
2022-09-15T18:58:10.104Z,79.50
2022-09-15T19:00:36.546Z,79.47
2022-09-15T19:03:05.475Z,80.67
2022-09-15T19:05:32.544Z,81.19
2022-09-15T19:07:58.907Z,81.51
2022-09-15T19:10:26.738Z,80.96
2022-09-15T19:12:53.681Z,77.64
2022-09-15T19:15:23.700Z,79.63
2022-09-15T19:17:50.221Z,78.73
2022-09-15T19:20:17.383Z,80.04
2022-09-15T19:22:43.752Z,80.91
2022-09-15T19:25:11.292Z,81.75
2022-09-15T19:27:39.391Z,79.44
2022-09-15T19:30:09.734Z,80.58
2022-09-15T19:32:36.843Z,79.30
2022-09-15T19:35:03.327Z,77.66
2022-09-15T19:37:29.657Z,77.35
2022-09-15T19:39:56.188Z,78.86
2022-09-15T19:42:22.639Z,76.94
2022-09-15T19:44:49.456Z,77.03
2022-09-15T19:47:16.195Z,80.96
2022-09-15T19:49:42.817Z,80.66
2022-09-15T19:52:09.195Z,82.52
2022-09-15T19:54:35.653Z,80.46
2022-09-15T19:57:02.120Z,82.10
2022-09-15T19:59:31.619Z,82.27
2022-09-15T20:01:59.001Z,81.88
2022-09-15T20:04:25.816Z,81.46
2022-09-15T20:06:52.237Z,80.42
2022-09-15T20:09:18.746Z,82.65
2022-09-15T20:11:45.111Z,82.77
2022-09-15T20:14:11.862Z,81.10
2022-09-15T20:16:38.286Z,80.11
2022-09-15T20:19:04.972Z,82.70
2022-09-15T20:21:50.767Z,80.24
2022-09-15T20:24:19.059Z,81.72
2022-09-15T20:26:45.411Z,81.51
2022-09-15T20:29:12.490Z,78.41
2022-09-15T20:31:39.240Z,77.92
2022-09-15T20:34:05.594Z,75.55
2022-09-15T20:36:35.400Z,74.97
2022-09-15T20:39:03.282Z,75.66
2022-09-15T20:41:31.712Z,76.34
2022-09-15T20:43:58.252Z,75.82
2022-09-15T20:46:25.142Z,75.75
2022-09-15T20:48:52.392Z,74.72
2022-09-15T20:51:22.687Z,76.55
2022-09-15T20:53:51.388Z,78.34
2022-09-15T20:56:21.028Z,79.88
2022-09-15T20:58:47.723Z,77.60
2022-09-15T21:01:19.279Z,77.05
2022-09-15T21:03:46.056Z,75.30
2022-09-15T21:06:15.768Z,74.22
2022-09-15T21:08:42.445Z,75.68
2022-09-15T21:11:14.533Z,79.23
2022-09-15T21:13:42.154Z,79.25
2022-09-15T21:16:11.065Z,76.10
2022-09-15T21:18:39.735Z,78.48
2022-09-15T21:21:36.635Z,79.91
2022-09-15T21:24:08.323Z,82.06
2022-09-15T21:26:58.532Z,82.40
2022-09-15T21:29:26.282Z,79.02
2022-09-15T21:31:52.879Z,78.56
2022-09-15T21:34:19.596Z,78.09
2022-09-15T21:36:46.031Z,77.94
2022-09-15T21:39:12.337Z,79.47
2022-09-15T21:41:38.679Z,81.05
2022-09-15T21:44:05.116Z,78.96
2022-09-15T21:46:31.834Z,78.50
2022-09-15T21:48:59.898Z,78.19
2022-09-15T21:51:28.348Z,78.52
2022-09-15T21:53:56.348Z,77.95
2022-09-15T21:56:24.014Z,78.68
2022-09-15T21:58:50.368Z,81.29
2022-09-15T22:01:19.498Z,79.49
2022-09-15T22:03:50.884Z,79.37
2022-09-15T22:06:19.248Z,82.38
2022-09-15T22:08:46.635Z,81.85
2022-09-15T22:11:13.176Z,80.05
2022-09-15T22:13:41.812Z,82.34
2022-09-15T22:16:12.490Z,83.23
2022-09-15T22:18:40.661Z,84.88
2022-09-15T22:21:13.806Z,83.01
2022-09-15T22:23:41.092Z,84.62
2022-09-15T22:26:13.261Z,85.08
2022-09-15T22:28:39.723Z,83.35
2022-09-15T22:31:09.073Z,83.19
2022-09-15T22:33:35.772Z,82.69
2022-09-15T22:36:02.826Z,85.85
2022-09-15T22:38:30.348Z,84.74
2022-09-15T22:41:02.352Z,83.34
2022-09-15T22:43:28.704Z,84.00
2022-09-15T22:45:55.075Z,84.10
2022-09-15T22:48:21.404Z,84.53
2022-09-15T22:50:47.704Z,83.03
2022-09-15T22:53:14.479Z,82.50
2022-09-15T22:55:41.004Z,84.31
2022-09-15T22:58:07.770Z,85.95
2022-09-15T23:00:36.746Z,84.29
2022-09-15T23:03:03.208Z,84.59
2022-09-15T23:05:29.513Z,85.26
2022-09-15T23:07:55.868Z,85.34
2022-09-15T23:10:22.674Z,88.06
2022-09-15T23:12:49.089Z,85.14
2022-09-15T23:15:15.476Z,85.58
2022-09-15T23:17:41.798Z,86.44
2022-09-15T23:20:09.327Z,86.86
2022-09-15T23:22:35.641Z,87.04
2022-09-15T23:25:01.994Z,89.34
2022-09-15T23:27:28.338Z,86.84
2022-09-15T23:29:54.662Z,85.54
2022-09-15T23:32:20.986Z,84.41
2022-09-15T23:34:47.299Z,84.73
2022-09-15T23:37:13.606Z,85.94
2022-09-15T23:39:40.267Z,85.58
2022-09-15T23:42:07.111Z,87.88
2022-09-15T23:44:33.426Z,88.81
2022-09-15T23:46:59.828Z,88.03
2022-09-15T23:49:26.230Z,85.21
2022-09-15T23:51:52.526Z,86.48
2022-09-15T23:54:18.918Z,90.83
2022-09-15T23:56:45.353Z,85.78
2022-09-15T23:59:11.670Z,85.86
